• Join FlightAware (Why Join?)
  • Login
  • US Flag 
06:11AM EDT


 

Airport Tracker/Info


-or-


 

Live Flight TrackerFlight Track Log ✈ EGF3016 ✈ 20-Aug-2013 ✈ KALO - KORD

Flight Track Log - Related Links

Times and Time Zones

All times are in EDT time to prevent confusion due to time zone crossing. See the EGF3016 flight status page for this flight to view local times or setup timezone preferences in your user account.

Time Position Orientation Groundspeed Altitude Reporting Facility
EDT Latitude Longitude Course Direction KTS MPH feet Rate Location/Type
07:56AM 42.5386 -92.4056 90° East 143 165 23,000  Level Chicago Center
07:57AM 42.5089 -92.3578 130° Southeast 249 287 4,100 -8,220 Descending Chicago Center
07:58AM 42.5317 -92.2697 71° East 247 284 6,200 2,220 Climbing Chicago Center
07:59AM 42.5564 -92.1678 72° East 266 306 8,800 2,280 Climbing Chicago Center
08:00AM 42.5814 -92.0617 72° East 286 329 11,000 2,040 Climbing Chicago Center
08:01AM 42.5333 -91.6676 90° East  Level FlightAware Approximate
08:01AM 42.5619 -91.9194 100° East 324 373 13,000  Level Chicago Center
08:02AM 42.5461 -91.7947 100° East 339 390 14,700 1,620 Climbing Chicago Center
08:03AM 42.5425 -91.6636 92° East 353 406 16,400 1,680 Climbing Chicago Center
08:04AM 42.5408 -91.5319 91° East 358 412 18,200 1,800 Climbing Chicago Center
08:05AM 42.5383 -91.4014 91° East 355 409 20,200 1,320 Climbing Chicago Center
08:06AM 42.5358 -91.2406 91° East 363 418 21,000 360 Climbing Chicago Center
08:07AM 42.5325 -91.0892 92° East 402 463 21,000  Level Chicago Center
08:08AM 42.5286 -90.9372 92° East 409 471 21,000  Level Chicago Center
08:09AM 42.5250 -90.7783 92° East 424 488 21,000  Level Chicago Center
08:10AM 42.5239 -90.6189 90° East 429 494 21,000  Level Chicago Center
08:11AM 42.5231 -90.4247 90° East 434 499 21,000  Level Chicago Center
08:12AM 42.5197 -90.2622 92° East 436 502 21,000  Level Chicago Center
08:13AM 42.5058 -90.1053 97° East 425 489 21,000  Level Chicago Center
08:14AM 42.4928 -89.9464 96° East 428 493 21,000  Level Chicago Center
08:15AM 42.4781 -89.7631 96° East 429 494 21,000  Level Chicago Center
08:17AM 42.4667 -89.6011 95° East 432 497 21,000 -120 Level Chicago Center
08:18AM 42.4536 -89.4381 96° East 435 501 20,800 -1,260 Descending Chicago Center
08:19AM 42.4408 -89.2781 96° East 430 495 18,400 -2,520 Descending Chicago Center
08:20AM 42.4261 -89.1058 97° East 400 460 15,700 -2,400 Descending Chicago Center
08:21AM 42.4133 -88.9547 96° East 404 465 13,500 -2,040 Descending Chicago Center
08:22AM 42.4011 -88.8075 96° East 398 458 11,500 -1,500 Descending Chicago Center
08:23AM 42.3894 -88.6692 96° East 383 441 10,500 -960 Descending Chicago Center
08:24AM 42.3789 -88.5636 98° East 311 358 9,600 -960 Descending Chicago Center
08:25AM 42.3589 -88.4428 103° East 289 333 8,600 -960 Descending Chicago Center
08:26AM 42.3192 -88.3731 128° Southeast 275 316 7,700 -1,200 Descending Chicago Center
08:27AM 42.2578 -88.2808 132° Southeast 276 318 6,200 -1,140 Descending Chicago Center
08:28AM 42.2122 -88.2094 131° Southeast 260 299 5,400 -600 Descending Chicago Center
08:29AM 42.1706 -88.1461 132° Southeast 236 272 5,000 -660 Descending Chicago Center
08:30AM 42.1275 -88.0869 134° Southeast 226 260 4,100 -1,020 Descending Chicago Center
08:31AM 42.0833 -88.0500 148° Southeast 190 219 3,100 -1,080 Descending Chicago TRACON
08:32AM 42.0500 -88.0000 132° Southeast 172 198 2,200 -900 Descending Chicago TRACON
08:33AM 42.0167 -87.9667 143° Southeast 143 165 1,400 -780 Descending Chicago TRACON
08:34AM 41.9833 -87.9333 143° Southeast 138 159 800 -720 Descending Chicago TRACON